sensor_id;sensor_type;location;lat;lon;timestamp;P1;durP1;ratioP1;P2;durP2;ratioP2
5032;SDS011;2535;49.888;8.942;2023-05-18T00:01:57;65.63;;;2.33;;
5032;SDS011;2535;49.888;8.942;2023-05-18T00:04:23;56.57;;;2.10;;
5032;SDS011;2535;49.888;8.942;2023-05-18T00:06:50;57.50;;;2.00;;
5032;SDS011;2535;49.888;8.942;2023-05-18T00:09:27;63.90;;;2.60;;
5032;SDS011;2535;49.888;8.942;2023-05-18T00:11:52;56.20;;;2.00;;
5032;SDS011;2535;49.888;8.942;2023-05-18T00:14:18;67.43;;;2.40;;
5032;SDS011;2535;49.888;8.942;2023-05-18T00:16:44;58.67;;;2.30;;
5032;SDS011;2535;49.888;8.942;2023-05-18T00:19:11;57.17;;;2.00;;
5032;SDS011;2535;49.888;8.942;2023-05-18T00:21:38;56.87;;;2.00;;
5032;SDS011;2535;49.888;8.942;2023-05-18T00:24:05;57.33;;;2.30;;
5032;SDS011;2535;49.888;8.942;2023-05-18T00:26:31;56.43;;;1.97;;
5032;SDS011;2535;49.888;8.942;2023-05-18T00:28:57;57.30;;;3.10;;
5032;SDS011;2535;49.888;8.942;2023-05-18T00:31:23;57.13;;;1.80;;
5032;SDS011;2535;49.888;8.942;2023-05-18T00:33:49;55.97;;;2.20;;
5032;SDS011;2535;49.888;8.942;2023-05-18T00:36:15;56.00;;;1.97;;
5032;SDS011;2535;49.888;8.942;2023-05-18T00:38:41;57.20;;;2.00;;
5032;SDS011;2535;49.888;8.942;2023-05-18T00:41:07;57.47;;;1.87;;
5032;SDS011;2535;49.888;8.942;2023-05-18T00:43:33;58.10;;;2.40;;
5032;SDS011;2535;49.888;8.942;2023-05-18T00:45:59;57.10;;;2.30;;
5032;SDS011;2535;49.888;8.942;2023-05-18T00:48:25;57.03;;;1.97;;
5032;SDS011;2535;49.888;8.942;2023-05-18T00:50:51;62.50;;;2.40;;
5032;SDS011;2535;49.888;8.942;2023-05-18T00:53:17;56.63;;;1.63;;
5032;SDS011;2535;49.888;8.942;2023-05-18T00:55:43;57.40;;;1.70;;
5032;SDS011;2535;49.888;8.942;2023-05-18T00:58:08;58.70;;;2.33;;
5032;SDS011;2535;49.888;8.942;2023-05-18T01:00:36;56.80;;;1.90;;
5032;SDS011;2535;49.888;8.942;2023-05-18T01:03:03;57.97;;;1.90;;
5032;SDS011;2535;49.888;8.942;2023-05-18T01:05:29;57.03;;;2.30;;
5032;SDS011;2535;49.888;8.942;2023-05-18T01:07:55;57.07;;;2.30;;
5032;SDS011;2535;49.888;8.942;2023-05-18T01:10:21;57.05;;;1.60;;
5032;SDS011;2535;49.888;8.942;2023-05-18T01:13:01;58.77;;;1.90;;
5032;SDS011;2535;49.888;8.942;2023-05-18T01:15:37;57.17;;;2.00;;
5032;SDS011;2535;49.888;8.942;2023-05-18T01:18:21;58.83;;;2.57;;
5032;SDS011;2535;49.888;8.942;2023-05-18T01:20:49;57.60;;;1.90;;
5032;SDS011;2535;49.888;8.942;2023-05-18T01:23:27;57.70;;;1.90;;
5032;SDS011;2535;49.888;8.942;2023-05-18T01:28:22;58.73;;;2.47;;
5032;SDS011;2535;49.888;8.942;2023-05-18T01:30:50;57.47;;;2.08;;
5032;SDS011;2535;49.888;8.942;2023-05-18T01:33:16;59.47;;;2.70;;
5032;SDS011;2535;49.888;8.942;2023-05-18T01:35:43;69.90;;;2.93;;
5032;SDS011;2535;49.888;8.942;2023-05-18T01:38:13;57.60;;;1.77;;
5032;SDS011;2535;49.888;8.942;2023-05-18T01:40:47;57.87;;;1.90;;
5032;SDS011;2535;49.888;8.942;2023-05-18T01:43:19;58.07;;;2.10;;
5032;SDS011;2535;49.888;8.942;2023-05-18T01:45:47;57.90;;;1.87;;
5032;SDS011;2535;49.888;8.942;2023-05-18T01:48:17;58.10;;;2.35;;
5032;SDS011;2535;49.888;8.942;2023-05-18T01:50:46;92.27;;;3.87;;
5032;SDS011;2535;49.888;8.942;2023-05-18T01:53:22;58.47;;;2.40;;
5032;SDS011;2535;49.888;8.942;2023-05-18T01:55:49;59.43;;;2.10;;
5032;SDS011;2535;49.888;8.942;2023-05-18T01:58:15;58.60;;;2.00;;
5032;SDS011;2535;49.888;8.942;2023-05-18T02:00:43;58.72;;;1.95;;
5032;SDS011;2535;49.888;8.942;2023-05-18T02:03:10;57.97;;;1.90;;
5032;SDS011;2535;49.888;8.942;2023-05-18T02:05:36;58.75;;;2.22;;
5032;SDS011;2535;49.888;8.942;2023-05-18T02:08:02;59.00;;;2.10;;
5032;SDS011;2535;49.888;8.942;2023-05-18T02:10:28;59.38;;;2.00;;
5032;SDS011;2535;49.888;8.942;2023-05-18T02:12:54;59.65;;;2.58;;
5032;SDS011;2535;49.888;8.942;2023-05-18T02:15:20;58.80;;;2.13;;
5032;SDS011;2535;49.888;8.942;2023-05-18T02:17:46;59.10;;;2.00;;
5032;SDS011;2535;49.888;8.942;2023-05-18T02:20:12;59.70;;;2.97;;
5032;SDS011;2535;49.888;8.942;2023-05-18T02:22:42;59.33;;;2.50;;
5032;SDS011;2535;49.888;8.942;2023-05-18T02:25:08;61.50;;;2.20;;
5032;SDS011;2535;49.888;8.942;2023-05-18T02:27:34;62.33;;;2.75;;
5032;SDS011;2535;49.888;8.942;2023-05-18T02:30:01;60.28;;;2.42;;
5032;SDS011;2535;49.888;8.942;2023-05-18T02:32:29;59.67;;;1.95;;
5032;SDS011;2535;49.888;8.942;2023-05-18T02:34:56;59.33;;;2.30;;
5032;SDS011;2535;49.888;8.942;2023-05-18T02:37:26;63.67;;;2.90;;
5032;SDS011;2535;49.888;8.942;2023-05-18T02:39:52;59.57;;;2.00;;
5032;SDS011;2535;49.888;8.942;2023-05-18T02:42:18;61.22;;;2.63;;
5032;SDS011;2535;49.888;8.942;2023-05-18T02:44:44;60.67;;;2.28;;
5032;SDS011;2535;49.888;8.942;2023-05-18T02:47:10;62.13;;;2.88;;
5032;SDS011;2535;49.888;8.942;2023-05-18T02:49:36;61.33;;;2.40;;
5032;SDS011;2535;49.888;8.942;2023-05-18T02:52:02;60.40;;;2.20;;
5032;SDS011;2535;49.888;8.942;2023-05-18T02:54:28;60.10;;;1.87;;
5032;SDS011;2535;49.888;8.942;2023-05-18T02:56:55;60.50;;;2.10;;
5032;SDS011;2535;49.888;8.942;2023-05-18T02:59:22;61.10;;;2.05;;
5032;SDS011;2535;49.888;8.942;2023-05-18T03:01:48;60.30;;;2.43;;
5032;SDS011;2535;49.888;8.942;2023-05-18T03:04:14;64.63;;;3.35;;
5032;SDS011;2535;49.888;8.942;2023-05-18T03:06:41;65.10;;;3.45;;
5032;SDS011;2535;49.888;8.942;2023-05-18T03:09:06;61.03;;;2.30;;
5032;SDS011;2535;49.888;8.942;2023-05-18T03:11:32;62.50;;;3.17;;
5032;SDS011;2535;49.888;8.942;2023-05-18T03:13:58;61.20;;;2.40;;
5032;SDS011;2535;49.888;8.942;2023-05-18T03:16:24;61.63;;;1.90;;
5032;SDS011;2535;49.888;8.942;2023-05-18T03:18:53;62.75;;;2.60;;
5032;SDS011;2535;49.888;8.942;2023-05-18T03:21:19;62.30;;;2.50;;
5032;SDS011;2535;49.888;8.942;2023-05-18T03:23:45;64.15;;;2.90;;
5032;SDS011;2535;49.888;8.942;2023-05-18T03:26:11;65.20;;;3.80;;
5032;SDS011;2535;49.888;8.942;2023-05-18T03:28:37;61.83;;;3.00;;
5032;SDS011;2535;49.888;8.942;2023-05-18T03:31:03;61.57;;;2.40;;
5032;SDS011;2535;49.888;8.942;2023-05-18T03:33:29;62.70;;;2.08;;
5032;SDS011;2535;49.888;8.942;2023-05-18T03:35:55;63.00;;;2.03;;
5032;SDS011;2535;49.888;8.942;2023-05-18T03:38:21;63.40;;;2.00;;
5032;SDS011;2535;49.888;8.942;2023-05-18T03:40:47;62.60;;;2.20;;
5032;SDS011;2535;49.888;8.942;2023-05-18T03:43:13;62.90;;;2.03;;
5032;SDS011;2535;49.888;8.942;2023-05-18T03:45:39;63.90;;;3.60;;
5032;SDS011;2535;49.888;8.942;2023-05-18T03:48:05;63.17;;;2.43;;
5032;SDS011;2535;49.888;8.942;2023-05-18T03:50:31;62.40;;;1.80;;
5032;SDS011;2535;49.888;8.942;2023-05-18T03:52:57;63.05;;;2.60;;
5032;SDS011;2535;49.888;8.942;2023-05-18T03:55:23;63.77;;;2.50;;
5032;SDS011;2535;49.888;8.942;2023-05-18T03:57:50;61.63;;;2.60;;
5032;SDS011;2535;49.888;8.942;2023-05-18T04:00:17;66.35;;;2.67;;
5032;SDS011;2535;49.888;8.942;2023-05-18T04:02:43;62.78;;;2.00;;
5032;SDS011;2535;49.888;8.942;2023-05-18T04:05:10;63.47;;;1.95;;
5032;SDS011;2535;49.888;8.942;2023-05-18T04:07:36;67.63;;;3.20;;
5032;SDS011;2535;49.888;8.942;2023-05-18T04:10:07;63.90;;;2.50;;
5032;SDS011;2535;49.888;8.942;2023-05-18T04:12:33;63.65;;;2.20;;
5032;SDS011;2535;49.888;8.942;2023-05-18T04:14:59;63.77;;;2.30;;
5032;SDS011;2535;49.888;8.942;2023-05-18T04:17:25;63.23;;;2.77;;
5032;SDS011;2535;49.888;8.942;2023-05-18T04:19:51;70.47;;;2.70;;
5032;SDS011;2535;49.888;8.942;2023-05-18T04:22:17;63.50;;;2.90;;
5032;SDS011;2535;49.888;8.942;2023-05-18T04:24:43;62.97;;;2.10;;
5032;SDS011;2535;49.888;8.942;2023-05-18T04:27:12;63.58;;;2.17;;
5032;SDS011;2535;49.888;8.942;2023-05-18T04:29:39;63.60;;;2.15;;
5032;SDS011;2535;49.888;8.942;2023-05-18T04:32:08;62.25;;;2.10;;
5032;SDS011;2535;49.888;8.942;2023-05-18T04:34:34;74.93;;;3.00;;
5032;SDS011;2535;49.888;8.942;2023-05-18T04:37:01;63.13;;;2.47;;
5032;SDS011;2535;49.888;8.942;2023-05-18T04:39:29;65.20;;;2.42;;
5032;SDS011;2535;49.888;8.942;2023-05-18T04:41:55;63.90;;;2.20;;
5032;SDS011;2535;49.888;8.942;2023-05-18T04:44:25;63.67;;;2.10;;
5032;SDS011;2535;49.888;8.942;2023-05-18T04:46:51;63.70;;;1.92;;
5032;SDS011;2535;49.888;8.942;2023-05-18T04:49:18;63.35;;;2.20;;
5032;SDS011;2535;49.888;8.942;2023-05-18T04:51:46;64.00;;;1.95;;
5032;SDS011;2535;49.888;8.942;2023-05-18T04:54:13;63.17;;;2.03;;
5032;SDS011;2535;49.888;8.942;2023-05-18T04:56:40;63.80;;;1.85;;
5032;SDS011;2535;49.888;8.942;2023-05-18T04:59:07;63.13;;;1.67;;
5032;SDS011;2535;49.888;8.942;2023-05-18T05:01:33;64.90;;;2.85;;
5032;SDS011;2535;49.888;8.942;2023-05-18T05:03:59;63.80;;;2.00;;
5032;SDS011;2535;49.888;8.942;2023-05-18T05:06:24;63.00;;;2.10;;
5032;SDS011;2535;49.888;8.942;2023-05-18T05:08:50;65.27;;;2.60;;
5032;SDS011;2535;49.888;8.942;2023-05-18T05:11:16;63.70;;;2.40;;
5032;SDS011;2535;49.888;8.942;2023-05-18T05:13:42;62.97;;;2.63;;
5032;SDS011;2535;49.888;8.942;2023-05-18T05:16:08;61.97;;;2.10;;
5032;SDS011;2535;49.888;8.942;2023-05-18T05:18:34;62.93;;;2.17;;
5032;SDS011;2535;49.888;8.942;2023-05-18T05:21:00;63.40;;;1.90;;
5032;SDS011;2535;49.888;8.942;2023-05-18T05:23:26;63.47;;;2.00;;
5032;SDS011;2535;49.888;8.942;2023-05-18T05:25:52;63.40;;;2.13;;
5032;SDS011;2535;49.888;8.942;2023-05-18T05:28:18;63.47;;;2.73;;
5032;SDS011;2535;49.888;8.942;2023-05-18T05:30:44;72.50;;;3.13;;
5032;SDS011;2535;49.888;8.942;2023-05-18T05:33:10;70.03;;;2.47;;
5032;SDS011;2535;49.888;8.942;2023-05-18T05:35:38;62.97;;;2.10;;
5032;SDS011;2535;49.888;8.942;2023-05-18T05:38:04;62.67;;;2.00;;
5032;SDS011;2535;49.888;8.942;2023-05-18T05:40:30;64.20;;;2.43;;
5032;SDS011;2535;49.888;8.942;2023-05-18T05:42:56;63.20;;;2.13;;
5032;SDS011;2535;49.888;8.942;2023-05-18T05:45:22;64.87;;;3.07;;
5032;SDS011;2535;49.888;8.942;2023-05-18T05:47:48;62.20;;;1.50;;
5032;SDS011;2535;49.888;8.942;2023-05-18T05:50:14;63.30;;;2.03;;
5032;SDS011;2535;49.888;8.942;2023-05-18T05:52:40;66.23;;;3.10;;
5032;SDS011;2535;49.888;8.942;2023-05-18T05:55:06;65.50;;;2.47;;
5032;SDS011;2535;49.888;8.942;2023-05-18T05:57:32;62.20;;;1.92;;
5032;SDS011;2535;49.888;8.942;2023-05-18T05:59:58;63.50;;;2.10;;
5032;SDS011;2535;49.888;8.942;2023-05-18T06:02:25;62.00;;;1.90;;
5032;SDS011;2535;49.888;8.942;2023-05-18T06:04:51;66.27;;;2.40;;
5032;SDS011;2535;49.888;8.942;2023-05-18T06:07:17;62.97;;;2.97;;
5032;SDS011;2535;49.888;8.942;2023-05-18T06:09:43;62.83;;;1.77;;
5032;SDS011;2535;49.888;8.942;2023-05-18T06:12:09;62.27;;;1.93;;
5032;SDS011;2535;49.888;8.942;2023-05-18T06:14:35;62.43;;;2.00;;
5032;SDS011;2535;49.888;8.942;2023-05-18T06:17:00;61.10;;;2.47;;
5032;SDS011;2535;49.888;8.942;2023-05-18T06:19:26;75.80;;;2.57;;
5032;SDS011;2535;49.888;8.942;2023-05-18T06:21:52;62.30;;;2.03;;
5032;SDS011;2535;49.888;8.942;2023-05-18T06:24:18;61.97;;;2.23;;
5032;SDS011;2535;49.888;8.942;2023-05-18T06:26:44;62.60;;;2.10;;
5032;SDS011;2535;49.888;8.942;2023-05-18T06:29:10;61.93;;;1.80;;
5032;SDS011;2535;49.888;8.942;2023-05-18T06:31:36;62.67;;;2.50;;
5032;SDS011;2535;49.888;8.942;2023-05-18T06:34:02;62.10;;;2.00;;
5032;SDS011;2535;49.888;8.942;2023-05-18T06:36:28;62.50;;;1.90;;
5032;SDS011;2535;49.888;8.942;2023-05-18T06:38:55;62.30;;;2.20;;
5032;SDS011;2535;49.888;8.942;2023-05-18T06:41:21;66.87;;;2.10;;
5032;SDS011;2535;49.888;8.942;2023-05-18T06:43:47;67.23;;;2.67;;
5032;SDS011;2535;49.888;8.942;2023-05-18T06:46:18;61.90;;;1.87;;
5032;SDS011;2535;49.888;8.942;2023-05-18T06:48:44;62.70;;;1.70;;
5032;SDS011;2535;49.888;8.942;2023-05-18T06:51:11;62.00;;;1.77;;
5032;SDS011;2535;49.888;8.942;2023-05-18T06:53:37;62.57;;;1.80;;
5032;SDS011;2535;49.888;8.942;2023-05-18T06:56:02;62.47;;;1.77;;
5032;SDS011;2535;49.888;8.942;2023-05-18T06:58:28;61.37;;;2.20;;
5032;SDS011;2535;49.888;8.942;2023-05-18T07:00:54;62.70;;;2.00;;
5032;SDS011;2535;49.888;8.942;2023-05-18T07:03:20;60.47;;;1.50;;
5032;SDS011;2535;49.888;8.942;2023-05-18T07:05:46;61.90;;;1.83;;
5032;SDS011;2535;49.888;8.942;2023-05-18T07:08:12;60.57;;;1.60;;
5032;SDS011;2535;49.888;8.942;2023-05-18T07:10:38;61.77;;;1.87;;
5032;SDS011;2535;49.888;8.942;2023-05-18T07:13:05;62.80;;;2.30;;
5032;SDS011;2535;49.888;8.942;2023-05-18T07:15:30;76.33;;;2.67;;
5032;SDS011;2535;49.888;8.942;2023-05-18T07:17:56;61.70;;;2.80;;
5032;SDS011;2535;49.888;8.942;2023-05-18T07:20:22;61.03;;;2.50;;
5032;SDS011;2535;49.888;8.942;2023-05-18T07:22:48;58.80;;;2.00;;
5032;SDS011;2535;49.888;8.942;2023-05-18T07:25:15;57.80;;;1.67;;
5032;SDS011;2535;49.888;8.942;2023-05-18T07:27:41;58.17;;;1.80;;
5032;SDS011;2535;49.888;8.942;2023-05-18T07:30:07;57.87;;;1.57;;
5032;SDS011;2535;49.888;8.942;2023-05-18T07:32:33;58.57;;;2.40;;
5032;SDS011;2535;49.888;8.942;2023-05-18T07:34:59;57.00;;;1.50;;
5032;SDS011;2535;49.888;8.942;2023-05-18T07:37:25;73.43;;;3.53;;
5032;SDS011;2535;49.888;8.942;2023-05-18T07:39:51;56.90;;;1.90;;
5032;SDS011;2535;49.888;8.942;2023-05-18T07:42:17;57.27;;;2.07;;
5032;SDS011;2535;49.888;8.942;2023-05-18T07:44:43;56.67;;;1.83;;
5032;SDS011;2535;49.888;8.942;2023-05-18T07:47:09;56.97;;;1.83;;
5032;SDS011;2535;49.888;8.942;2023-05-18T07:49:35;56.60;;;1.97;;
5032;SDS011;2535;49.888;8.942;2023-05-18T07:52:03;56.70;;;1.83;;
5032;SDS011;2535;49.888;8.942;2023-05-18T07:54:29;56.20;;;1.40;;
5032;SDS011;2535;49.888;8.942;2023-05-18T07:56:55;56.60;;;1.80;;
5032;SDS011;2535;49.888;8.942;2023-05-18T07:59:21;56.47;;;1.87;;
5032;SDS011;2535;49.888;8.942;2023-05-18T08:01:47;55.37;;;1.80;;
5032;SDS011;2535;49.888;8.942;2023-05-18T08:04:13;56.70;;;1.90;;
5032;SDS011;2535;49.888;8.942;2023-05-18T08:06:39;56.10;;;2.00;;
5032;SDS011;2535;49.888;8.942;2023-05-18T08:09:05;80.63;;;2.50;;
5032;SDS011;2535;49.888;8.942;2023-05-18T08:11:31;57.03;;;2.27;;
5032;SDS011;2535;49.888;8.942;2023-05-18T08:13:57;56.03;;;1.60;;
5032;SDS011;2535;49.888;8.942;2023-05-18T08:16:23;55.00;;;1.60;;
5032;SDS011;2535;49.888;8.942;2023-05-18T08:18:49;53.17;;;1.30;;
5032;SDS011;2535;49.888;8.942;2023-05-18T08:21:15;123.37;;;2.97;;
5032;SDS011;2535;49.888;8.942;2023-05-18T08:23:41;54.67;;;1.80;;
5032;SDS011;2535;49.888;8.942;2023-05-18T08:26:07;54.67;;;1.60;;
5032;SDS011;2535;49.888;8.942;2023-05-18T08:28:33;60.37;;;2.30;;
5032;SDS011;2535;49.888;8.942;2023-05-18T08:30:59;56.87;;;2.63;;
5032;SDS011;2535;49.888;8.942;2023-05-18T08:33:25;54.37;;;1.90;;
5032;SDS011;2535;49.888;8.942;2023-05-18T08:35:51;53.80;;;1.50;;
5032;SDS011;2535;49.888;8.942;2023-05-18T08:38:17;53.20;;;1.40;;
5032;SDS011;2535;49.888;8.942;2023-05-18T08:40:52;54.40;;;1.93;;
5032;SDS011;2535;49.888;8.942;2023-05-18T08:43:21;52.80;;;1.37;;
5032;SDS011;2535;49.888;8.942;2023-05-18T08:45:54;55.00;;;1.70;;
5032;SDS011;2535;49.888;8.942;2023-05-18T08:48:21;53.30;;;1.33;;
5032;SDS011;2535;49.888;8.942;2023-05-18T08:50:48;53.60;;;2.00;;
5032;SDS011;2535;49.888;8.942;2023-05-18T08:53:16;54.07;;;1.97;;
5032;SDS011;2535;49.888;8.942;2023-05-18T08:55:43;54.17;;;2.23;;
5032;SDS011;2535;49.888;8.942;2023-05-18T08:58:10;53.30;;;1.40;;
5032;SDS011;2535;49.888;8.942;2023-05-18T09:00:38;52.10;;;1.20;;
5032;SDS011;2535;49.888;8.942;2023-05-18T09:03:04;52.17;;;1.50;;
5032;SDS011;2535;49.888;8.942;2023-05-18T09:05:30;52.27;;;1.57;;
5032;SDS011;2535;49.888;8.942;2023-05-18T09:07:56;52.27;;;1.63;;
5032;SDS011;2535;49.888;8.942;2023-05-18T09:10:22;52.70;;;2.23;;
5032;SDS011;2535;49.888;8.942;2023-05-18T09:12:48;52.13;;;1.23;;
5032;SDS011;2535;49.888;8.942;2023-05-18T09:15:15;52.10;;;1.40;;
5032;SDS011;2535;49.888;8.942;2023-05-18T09:17:42;52.37;;;1.60;;
5032;SDS011;2535;49.888;8.942;2023-05-18T09:20:08;51.30;;;1.30;;
5032;SDS011;2535;49.888;8.942;2023-05-18T09:22:34;51.93;;;1.70;;
5032;SDS011;2535;49.888;8.942;2023-05-18T09:25:03;52.40;;;1.70;;
5032;SDS011;2535;49.888;8.942;2023-05-18T09:27:30;52.20;;;1.97;;
5032;SDS011;2535;49.888;8.942;2023-05-18T09:29:56;52.93;;;2.00;;
5032;SDS011;2535;49.888;8.942;2023-05-18T09:32:23;52.73;;;1.73;;
5032;SDS011;2535;49.888;8.942;2023-05-18T09:34:49;56.60;;;1.47;;
5032;SDS011;2535;49.888;8.942;2023-05-18T09:37:15;51.47;;;1.40;;
5032;SDS011;2535;49.888;8.942;2023-05-18T09:39:41;51.33;;;1.40;;
5032;SDS011;2535;49.888;8.942;2023-05-18T09:42:07;50.97;;;1.30;;
5032;SDS011;2535;49.888;8.942;2023-05-18T09:44:33;51.50;;;1.50;;
5032;SDS011;2535;49.888;8.942;2023-05-18T09:47:00;51.00;;;1.30;;
5032;SDS011;2535;49.888;8.942;2023-05-18T09:49:29;49.67;;;1.10;;
5032;SDS011;2535;49.888;8.942;2023-05-18T09:51:58;50.70;;;1.43;;
5032;SDS011;2535;49.888;8.942;2023-05-18T09:54:24;50.97;;;1.43;;
5032;SDS011;2535;49.888;8.942;2023-05-18T09:56:50;49.67;;;1.30;;
5032;SDS011;2535;49.888;8.942;2023-05-18T09:59:16;51.17;;;1.40;;
5032;SDS011;2535;49.888;8.942;2023-05-18T10:01:57;49.83;;;1.43;;
5032;SDS011;2535;49.888;8.942;2023-05-18T10:04:36;51.27;;;1.50;;
5032;SDS011;2535;49.888;8.942;2023-05-18T10:07:03;50.60;;;1.50;;
5032;SDS011;2535;49.888;8.942;2023-05-18T10:09:32;50.20;;;1.13;;
5032;SDS011;2535;49.888;8.942;2023-05-18T10:11:58;51.80;;;2.10;;
5032;SDS011;2535;49.888;8.942;2023-05-18T10:14:25;49.40;;;1.20;;
5032;SDS011;2535;49.888;8.942;2023-05-18T10:16:54;49.07;;;1.37;;
5032;SDS011;2535;49.888;8.942;2023-05-18T10:19:20;50.77;;;1.63;;
5032;SDS011;2535;49.888;8.942;2023-05-18T10:21:46;52.07;;;1.73;;
5032;SDS011;2535;49.888;8.942;2023-05-18T10:24:13;49.30;;;1.50;;
5032;SDS011;2535;49.888;8.942;2023-05-18T10:26:42;48.20;;;1.30;;
5032;SDS011;2535;49.888;8.942;2023-05-18T10:29:08;48.77;;;1.20;;
5032;SDS011;2535;49.888;8.942;2023-05-18T10:31:35;49.60;;;1.40;;
5032;SDS011;2535;49.888;8.942;2023-05-18T10:34:01;51.00;;;1.77;;
5032;SDS011;2535;49.888;8.942;2023-05-18T10:36:28;50.37;;;1.60;;
5032;SDS011;2535;49.888;8.942;2023-05-18T10:38:56;50.27;;;1.70;;
5032;SDS011;2535;49.888;8.942;2023-05-18T10:41:24;50.17;;;1.60;;
5032;SDS011;2535;49.888;8.942;2023-05-18T10:43:51;50.87;;;1.93;;
5032;SDS011;2535;49.888;8.942;2023-05-18T10:46:19;52.50;;;2.23;;
5032;SDS011;2535;49.888;8.942;2023-05-18T10:48:50;49.50;;;1.60;;
5032;SDS011;2535;49.888;8.942;2023-05-18T10:51:17;49.30;;;1.30;;
5032;SDS011;2535;49.888;8.942;2023-05-18T10:53:43;50.03;;;1.43;;
5032;SDS011;2535;49.888;8.942;2023-05-18T10:56:11;49.87;;;1.50;;
5032;SDS011;2535;49.888;8.942;2023-05-18T10:58:37;49.43;;;1.40;;
5032;SDS011;2535;49.888;8.942;2023-05-18T11:01:04;48.53;;;1.10;;
5032;SDS011;2535;49.888;8.942;2023-05-18T11:03:32;49.53;;;1.50;;
5032;SDS011;2535;49.888;8.942;2023-05-18T11:06:05;49.00;;;1.10;;
5032;SDS011;2535;49.888;8.942;2023-05-18T11:08:32;49.00;;;1.30;;
5032;SDS011;2535;49.888;8.942;2023-05-18T11:10:59;50.00;;;1.77;;
5032;SDS011;2535;49.888;8.942;2023-05-18T11:13:27;50.27;;;1.77;;
5032;SDS011;2535;49.888;8.942;2023-05-18T11:18:25;48.57;;;1.37;;
5032;SDS011;2535;49.888;8.942;2023-05-18T11:20:58;48.70;;;1.60;;
5032;SDS011;2535;49.888;8.942;2023-05-18T11:23:25;48.80;;;1.43;;
5032;SDS011;2535;49.888;8.942;2023-05-18T11:25:51;48.40;;;1.13;;
5032;SDS011;2535;49.888;8.942;2023-05-18T11:28:18;51.30;;;1.60;;
5032;SDS011;2535;49.888;8.942;2023-05-18T11:30:46;48.67;;;1.37;;
5032;SDS011;2535;49.888;8.942;2023-05-18T11:44:13;52.30;;;1.40;;
5032;SDS011;2535;49.888;8.942;2023-05-18T11:46:39;47.70;;;1.20;;
5032;SDS011;2535;49.888;8.942;2023-05-18T11:49:06;50.87;;;1.47;;
5032;SDS011;2535;49.888;8.942;2023-05-18T11:51:32;47.70;;;1.30;;
5032;SDS011;2535;49.888;8.942;2023-05-18T11:53:58;47.70;;;1.20;;
5032;SDS011;2535;49.888;8.942;2023-05-18T11:56:25;50.30;;;2.00;;
5032;SDS011;2535;49.888;8.942;2023-05-18T11:59:10;47.77;;;1.47;;
5032;SDS011;2535;49.888;8.942;2023-05-18T12:01:36;47.90;;;1.37;;
5032;SDS011;2535;49.888;8.942;2023-05-18T12:04:03;48.60;;;1.60;;
5032;SDS011;2535;49.888;8.942;2023-05-18T12:06:29;47.10;;;1.10;;
5032;SDS011;2535;49.888;8.942;2023-05-18T12:08:57;47.63;;;1.33;;
5032;SDS011;2535;49.888;8.942;2023-05-18T12:11:23;49.60;;;1.57;;
5032;SDS011;2535;49.888;8.942;2023-05-18T12:13:50;46.90;;;1.30;;
5032;SDS011;2535;49.888;8.942;2023-05-18T12:16:16;46.70;;;1.20;;
5032;SDS011;2535;49.888;8.942;2023-05-18T12:18:52;48.00;;;1.60;;
5032;SDS011;2535;49.888;8.942;2023-05-18T12:21:21;48.57;;;1.57;;
5032;SDS011;2535;49.888;8.942;2023-05-18T12:23:48;46.87;;;1.27;;
5032;SDS011;2535;49.888;8.942;2023-05-18T12:26:15;48.57;;;1.60;;
5032;SDS011;2535;49.888;8.942;2023-05-18T12:28:43;46.53;;;1.63;;
5032;SDS011;2535;49.888;8.942;2023-05-18T12:31:10;52.13;;;1.10;;
5032;SDS011;2535;49.888;8.942;2023-05-18T12:33:36;46.67;;;1.30;;
5032;SDS011;2535;49.888;8.942;2023-05-18T12:36:02;47.20;;;1.40;;
5032;SDS011;2535;49.888;8.942;2023-05-18T12:38:28;46.73;;;1.33;;
5032;SDS011;2535;49.888;8.942;2023-05-18T12:40:56;45.87;;;1.00;;
5032;SDS011;2535;49.888;8.942;2023-05-18T12:43:23;45.90;;;1.20;;
5032;SDS011;2535;49.888;8.942;2023-05-18T12:45:50;52.83;;;1.53;;
5032;SDS011;2535;49.888;8.942;2023-05-18T12:48:17;45.90;;;0.93;;
5032;SDS011;2535;49.888;8.942;2023-05-18T12:50:46;46.60;;;1.40;;
5032;SDS011;2535;49.888;8.942;2023-05-18T12:53:12;46.70;;;1.50;;
5032;SDS011;2535;49.888;8.942;2023-05-18T12:55:38;46.60;;;1.47;;
5032;SDS011;2535;49.888;8.942;2023-05-18T12:58:10;46.07;;;1.37;;
5032;SDS011;2535;49.888;8.942;2023-05-18T13:00:41;48.60;;;1.97;;
5032;SDS011;2535;49.888;8.942;2023-05-18T13:03:08;46.77;;;1.60;;
5032;SDS011;2535;49.888;8.942;2023-05-18T13:05:34;45.17;;;1.13;;
5032;SDS011;2535;49.888;8.942;2023-05-18T13:08:00;45.63;;;1.10;;
5032;SDS011;2535;49.888;8.942;2023-05-18T13:10:30;45.73;;;1.17;;
5032;SDS011;2535;49.888;8.942;2023-05-18T13:12:56;45.33;;;1.20;;
5032;SDS011;2535;49.888;8.942;2023-05-18T13:15:27;44.67;;;1.10;;
5032;SDS011;2535;49.888;8.942;2023-05-18T13:17:57;46.20;;;1.70;;
5032;SDS011;2535;49.888;8.942;2023-05-18T13:20:28;46.30;;;1.77;;
5032;SDS011;2535;49.888;8.942;2023-05-18T13:22:55;43.40;;;1.20;;
5032;SDS011;2535;49.888;8.942;2023-05-18T13:25:23;43.37;;;0.90;;
5032;SDS011;2535;49.888;8.942;2023-05-18T13:27:50;44.20;;;1.30;;
5032;SDS011;2535;49.888;8.942;2023-05-18T13:30:16;43.80;;;1.37;;
5032;SDS011;2535;49.888;8.942;2023-05-18T13:32:42;45.63;;;1.20;;
5032;SDS011;2535;49.888;8.942;2023-05-18T13:35:08;44.80;;;1.33;;
5032;SDS011;2535;49.888;8.942;2023-05-18T13:37:35;42.77;;;1.33;;
5032;SDS011;2535;49.888;8.942;2023-05-18T13:40:01;44.17;;;1.40;;
5032;SDS011;2535;49.888;8.942;2023-05-18T13:42:28;42.83;;;1.33;;
5032;SDS011;2535;49.888;8.942;2023-05-18T13:44:54;43.60;;;1.40;;
5032;SDS011;2535;49.888;8.942;2023-05-18T13:47:20;41.57;;;1.10;;
5032;SDS011;2535;49.888;8.942;2023-05-18T13:49:46;43.23;;;1.30;;
5032;SDS011;2535;49.888;8.942;2023-05-18T13:52:12;41.33;;;1.20;;
5032;SDS011;2535;49.888;8.942;2023-05-18T13:54:38;41.07;;;1.07;;
5032;SDS011;2535;49.888;8.942;2023-05-18T13:57:04;40.17;;;1.00;;
5032;SDS011;2535;49.888;8.942;2023-05-18T13:59:31;40.20;;;1.17;;
5032;SDS011;2535;49.888;8.942;2023-05-18T14:01:58;41.60;;;1.10;;
5032;SDS011;2535;49.888;8.942;2023-05-18T14:04:25;41.57;;;1.37;;
5032;SDS011;2535;49.888;8.942;2023-05-18T14:06:51;38.70;;;1.10;;
5032;SDS011;2535;49.888;8.942;2023-05-18T14:09:20;41.83;;;1.73;;
5032;SDS011;2535;49.888;8.942;2023-05-18T14:11:46;38.60;;;1.03;;
5032;SDS011;2535;49.888;8.942;2023-05-18T14:14:12;38.97;;;1.20;;
5032;SDS011;2535;49.888;8.942;2023-05-18T14:16:37;39.37;;;1.33;;
5032;SDS011;2535;49.888;8.942;2023-05-18T14:19:03;39.60;;;1.30;;
5032;SDS011;2535;49.888;8.942;2023-05-18T14:21:29;39.17;;;1.10;;
5032;SDS011;2535;49.888;8.942;2023-05-18T14:23:55;39.07;;;1.07;;
5032;SDS011;2535;49.888;8.942;2023-05-18T14:26:21;40.27;;;1.60;;
5032;SDS011;2535;49.888;8.942;2023-05-18T14:28:47;41.60;;;1.00;;
5032;SDS011;2535;49.888;8.942;2023-05-18T14:31:13;38.60;;;1.10;;
5032;SDS011;2535;49.888;8.942;2023-05-18T14:33:39;49.73;;;1.67;;
5032;SDS011;2535;49.888;8.942;2023-05-18T14:36:06;37.60;;;1.20;;
5032;SDS011;2535;49.888;8.942;2023-05-18T14:38:32;40.13;;;1.40;;
5032;SDS011;2535;49.888;8.942;2023-05-18T14:40:58;36.77;;;1.33;;
5032;SDS011;2535;49.888;8.942;2023-05-18T14:43:23;35.90;;;1.10;;
5032;SDS011;2535;49.888;8.942;2023-05-18T14:45:49;36.17;;;1.00;;
5032;SDS011;2535;49.888;8.942;2023-05-18T14:48:15;40.63;;;1.70;;
5032;SDS011;2535;49.888;8.942;2023-05-18T14:50:41;37.30;;;1.07;;
5032;SDS011;2535;49.888;8.942;2023-05-18T14:53:07;38.93;;;1.37;;
5032;SDS011;2535;49.888;8.942;2023-05-18T14:55:33;37.83;;;1.30;;
5032;SDS011;2535;49.888;8.942;2023-05-18T14:57:59;36.97;;;1.23;;
5032;SDS011;2535;49.888;8.942;2023-05-18T15:00:28;37.73;;;1.47;;
5032;SDS011;2535;49.888;8.942;2023-05-18T15:02:54;34.83;;;0.93;;
5032;SDS011;2535;49.888;8.942;2023-05-18T15:05:20;34.50;;;1.10;;
5032;SDS011;2535;49.888;8.942;2023-05-18T15:07:46;33.47;;;1.03;;
5032;SDS011;2535;49.888;8.942;2023-05-18T15:10:12;33.60;;;1.37;;
5032;SDS011;2535;49.888;8.942;2023-05-18T15:12:38;32.90;;;1.00;;
5032;SDS011;2535;49.888;8.942;2023-05-18T15:15:04;31.70;;;0.70;;